Time;durP1;ratioP1;P1;durP2;ratioP2;P2;SDS_P1;SDS_P2;PMS_P1;PMS_P2;Temp;Humidity;BMP_temperature;BMP_pressure;BME280_temperature;BME280_humidity;BME280_pressure;Samples;Min_cycle;Max_cycle;Signal;HPM_P1;HPM_P2
2021/07/10 00:01:19;;;;;;;23.00;19.33;;;14.60;99.90;;;;;;5010833;28;20026;-72
2021/07/10 00:03:45;;;;;;;20.13;17.55;;;14.60;99.90;;;;;;5011801;28;20032;-71
2021/07/10 00:06:11;;;;;;;25.05;19.40;;;14.40;99.90;;;;;;5011701;28;20057;-71
2021/07/10 00:08:37;;;;;;;25.45;19.95;;;14.40;99.90;;;;;;5011824;28;20022;-71
2021/07/10 00:11:04;;;;;;;22.48;18.77;;;14.40;99.90;;;;;;5011317;28;20026;-71
2021/07/10 00:13:30;;;;;;;34.97;21.45;;;14.30;99.90;;;;;;5011697;28;20029;-71
2021/07/10 00:15:56;;;;;;;23.27;19.10;;;14.30;99.90;;;;;;5011102;28;20026;-71
2021/07/10 00:18:22;;;;;;;21.27;17.02;;;14.30;99.90;;;;;;5011731;28;20366;-71
2021/07/10 00:20:49;;;;;;;19.10;16.83;;;14.20;99.90;;;;;;5011201;28;20026;-71
2021/07/10 00:23:15;;;;;;;18.23;16.33;;;14.20;99.90;;;;;;5011051;28;20030;-71
2021/07/10 00:25:41;;;;;;;20.38;17.30;;;14.20;99.90;;;;;;5015159;28;20696;-72
2021/07/10 00:28:07;;;;;;;19.25;16.33;;;14.20;99.90;;;;;;5026252;28;20104;-72
2021/07/10 00:30:33;;;;;;;17.90;16.08;;;14.10;99.90;;;;;;5030319;28;20028;-71
2021/07/10 00:32:59;;;;;;;20.48;16.73;;;14.20;99.90;;;;;;5031250;28;20447;-71
2021/07/10 00:35:25;;;;;;;26.45;19.38;;;14.20;99.90;;;;;;5031161;28;20017;-71
2021/07/10 00:37:50;;;;;;;22.70;18.33;;;14.20;99.90;;;;;;5031329;28;20100;-71
2021/07/10 00:40:16;;;;;;;27.65;19.38;;;14.20;99.90;;;;;;5030516;28;20056;-71
2021/07/10 00:42:44;;;;;;;23.92;20.52;;;14.20;99.90;;;;;;5031073;28;20096;-70
2021/07/10 00:45:11;;;;;;;32.40;22.05;;;14.20;99.90;;;;;;5023500;28;20029;-70
2021/07/10 00:47:38;;;;;;;25.75;20.48;;;14.30;99.90;;;;;;5011279;28;20341;-70
2021/07/10 00:50:11;;;;;;;30.33;23.02;;;14.20;99.90;;;;;;5011413;28;20101;-70
2021/07/10 00:52:37;;;;;;;33.20;24.45;;;14.10;99.90;;;;;;5015449;28;20480;-71
2021/07/10 00:55:03;;;;;;;38.92;25.42;;;14.20;99.90;;;;;;5015167;28;20041;-71
2021/07/10 00:57:29;;;;;;;52.25;29.05;;;14.40;99.90;;;;;;5015281;28;20101;-70
2021/07/10 00:59:55;;;;;;;39.20;27.88;;;14.50;99.90;;;;;;5014334;28;20670;-71
2021/07/10 01:02:20;;;;;;;49.22;28.40;;;14.60;99.90;;;;;;5031774;28;20037;-71
2021/07/10 01:04:46;;;;;;;37.50;26.52;;;14.60;99.90;;;;;;5034578;28;20033;-71
2021/07/10 01:07:12;;;;;;;36.72;24.67;;;14.70;99.90;;;;;;5034752;28;20171;-71
2021/07/10 01:09:37;;;;;;;34.42;22.30;;;14.60;99.90;;;;;;5034051;28;20033;-70
2021/07/10 01:12:04;;;;;;;24.70;19.17;;;14.50;99.90;;;;;;5047180;28;20093;-71
2021/07/10 01:14:30;;;;;;;35.95;22.02;;;14.40;99.90;;;;;;5040784;28;20029;-72
2021/07/10 01:16:55;;;;;;;38.72;24.23;;;14.60;99.90;;;;;;5024774;28;20045;-71
2021/07/10 01:19:27;;;;;;;29.27;23.45;;;14.70;99.90;;;;;;5014690;28;20104;-71
2021/07/10 01:21:57;;;;;;;28.83;22.17;;;14.70;99.90;;;;;;5014001;28;20021;-71
2021/07/10 01:24:23;;;;;;;34.65;21.77;;;14.70;99.90;;;;;;5014554;28;20026;-72
2021/07/10 01:26:48;;;;;;;26.10;22.00;;;14.60;99.90;;;;;;5014162;28;20108;-71
2021/07/10 01:29:14;;;;;;;39.75;20.83;;;14.60;99.90;;;;;;5014540;28;20109;-71
2021/07/10 01:31:41;;;;;;;38.65;22.38;;;14.60;99.90;;;;;;5013549;28;20481;-72
2021/07/10 01:34:07;;;;;;;27.08;20.80;;;14.70;99.90;;;;;;5014435;28;20036;-72
2021/07/10 01:36:34;;;;;;;24.10;20.17;;;14.60;99.90;;;;;;5014632;28;20030;-72
2021/07/10 01:39:00;;;;;;;21.48;18.30;;;14.50;99.90;;;;;;5014121;28;20022;-71
2021/07/10 01:41:25;;;;;;;48.90;18.17;;;14.40;99.90;;;;;;5012103;28;20034;-71
2021/07/10 01:43:51;;;;;;;22.55;19.67;;;14.40;99.90;;;;;;5014015;28;20030;-71
2021/07/10 01:46:18;;;;;;;24.88;19.95;;;14.40;99.90;;;;;;5013816;28;20097;-71
2021/07/10 01:48:45;;;;;;;21.63;19.25;;;14.40;99.90;;;;;;5014340;28;20068;-71
2021/07/10 01:51:10;;;;;;;38.70;19.52;;;14.40;99.90;;;;;;5013404;28;20028;-70
2021/07/10 01:53:36;;;;;;;35.70;20.08;;;14.40;99.90;;;;;;5014191;28;20108;-71
2021/07/10 01:56:02;;;;;;;23.67;18.85;;;14.50;99.90;;;;;;5013853;28;20111;-71
2021/07/10 01:58:28;;;;;;;48.65;21.33;;;14.60;99.90;;;;;;5013836;28;20063;-71
2021/07/10 02:00:53;;;;;;;24.23;19.42;;;14.70;99.90;;;;;;5012949;28;20026;-71
2021/07/10 02:03:19;;;;;;;26.67;20.52;;;14.70;99.90;;;;;;5012892;28;20045;-71
2021/07/10 02:05:45;;;;;;;19.50;17.35;;;14.80;99.90;;;;;;5013724;28;20080;-70
2021/07/10 02:08:10;;;;;;;43.05;19.75;;;14.60;99.90;;;;;;5013844;28;20026;-71
2021/07/10 02:10:36;;;;;;;43.58;22.05;;;14.20;99.90;;;;;;5032012;28;20497;-71
2021/07/10 02:13:08;;;;;;;29.05;20.45;;;13.90;99.90;;;;;;5033934;28;20031;-71
2021/07/10 02:15:34;;;;;;;51.03;20.67;;;13.90;99.90;;;;;;5023454;28;20484;-71
2021/07/10 02:18:00;;;;;;;60.85;20.33;;;13.90;99.90;;;;;;5015339;28;20348;-72
2021/07/10 02:20:27;;;;;;;49.33;18.52;;;13.70;99.90;;;;;;5013387;28;20098;-71
2021/07/10 02:22:55;;;;;;;53.20;18.23;;;13.60;99.90;;;;;;5011998;28;20026;-70
2021/07/10 02:25:22;;;;;;;43.88;18.83;;;13.50;99.90;;;;;;5028418;28;20060;-70
2021/07/10 02:27:48;;;;;;;47.75;17.33;;;13.50;99.90;;;;;;5011672;28;20022;-70
2021/07/10 02:30:18;;;;;;;22.70;17.85;;;13.40;99.90;;;;;;5011759;28;20026;-70
2021/07/10 02:32:46;;;;;;;39.75;20.42;;;13.20;99.90;;;;;;5012477;28;20022;-71
2021/07/10 02:35:14;;;;;;;23.65;20.00;;;13.40;99.90;;;;;;5012964;28;20057;-70
2021/07/10 02:37:40;;;;;;;30.65;18.95;;;13.60;99.90;;;;;;5013052;28;20548;-70
2021/07/10 02:40:08;;;;;;;22.23;18.30;;;13.40;99.90;;;;;;5012792;28;20026;-71
2021/07/10 02:42:35;;;;;;;18.15;16.20;;;13.40;99.90;;;;;;5013194;28;20022;-71
2021/07/10 02:45:02;;;;;;;50.10;19.80;;;13.30;99.90;;;;;;5013160;28;20036;-71
2021/07/10 02:47:28;;;;;;;30.50;18.23;;;13.40;99.90;;;;;;5012986;28;20026;-72
2021/07/10 02:49:53;;;;;;;29.95;18.25;;;13.40;99.90;;;;;;5012317;28;20022;-71
2021/07/10 02:52:19;;;;;;;86.43;19.40;;;13.40;99.90;;;;;;5012918;28;20481;-71
2021/07/10 02:54:44;;;;;;;22.17;18.63;;;13.40;99.90;;;;;;5012666;28;20138;-71
2021/07/10 02:57:10;;;;;;;23.38;19.85;;;13.60;99.90;;;;;;5013056;28;20107;-71
2021/07/10 02:59:36;;;;;;;21.10;19.00;;;13.60;99.90;;;;;;5012498;28;20537;-71
2021/07/10 03:02:03;;;;;;;28.83;15.80;;;13.60;99.90;;;;;;5012492;28;20100;-71
2021/07/10 03:04:29;;;;;;;18.00;16.20;;;13.60;99.90;;;;;;5011475;28;20388;-71
2021/07/10 03:06:55;;;;;;;21.65;16.15;;;13.60;99.90;;;;;;5012754;28;20029;-71
2021/07/10 03:09:20;;;;;;;18.13;16.23;;;13.60;99.90;;;;;;5012559;28;20053;-71
2021/07/10 03:11:48;;;;;;;58.35;15.77;;;13.60;99.90;;;;;;5012078;28;20069;-71
2021/07/10 03:14:17;;;;;;;19.30;15.90;;;13.60;99.90;;;;;;5011873;28;20105;-72
2021/07/10 03:16:43;;;;;;;40.22;18.33;;;13.70;99.90;;;;;;5012284;28;20026;-70
2021/07/10 03:19:08;;;;;;;17.70;15.90;;;13.70;99.90;;;;;;5012403;28;20079;-70
2021/07/10 03:21:34;;;;;;;16.23;14.68;;;13.80;99.90;;;;;;5025546;28;20025;-71
2021/07/10 03:24:00;;;;;;;88.22;16.63;;;13.80;99.90;;;;;;5015361;28;20477;-72
2021/07/10 03:26:26;;;;;;;37.03;15.82;;;13.80;99.90;;;;;;5012312;28;20064;-72
2021/07/10 03:28:51;;;;;;;15.38;13.88;;;13.80;99.90;;;;;;5012266;28;20026;-71
2021/07/10 03:31:17;;;;;;;15.27;13.80;;;13.80;99.90;;;;;;5011203;28;20076;-71
2021/07/10 03:33:44;;;;;;;35.95;14.20;;;13.70;99.90;;;;;;5012201;28;20029;-72
2021/07/10 03:36:11;;;;;;;24.13;14.40;;;13.60;99.90;;;;;;5010782;28;20030;-72
2021/07/10 03:38:44;;;;;;;21.35;15.73;;;13.50;99.90;;;;;;5011947;28;20504;-71
2021/07/10 03:41:10;;;;;;;38.75;15.25;;;13.60;99.90;;;;;;5011426;28;20018;-71
2021/07/10 03:43:37;;;;;;;48.22;17.45;;;13.50;99.90;;;;;;5012045;28;20121;-71
2021/07/10 03:46:03;;;;;;;57.67;17.00;;;13.60;99.90;;;;;;5011301;28;20033;-73
2021/07/10 03:48:30;;;;;;;25.67;15.95;;;13.70;99.90;;;;;;5012317;28;20088;-72
2021/07/10 03:50:57;;;;;;;18.23;16.35;;;13.70;99.90;;;;;;5011249;28;20018;-72
2021/07/10 03:53:22;;;;;;;17.15;15.25;;;13.80;99.90;;;;;;5011867;28;20021;-72
2021/07/10 03:55:49;;;;;;;17.20;15.63;;;13.70;99.90;;;;;;5078509;22;20034;-71
2021/07/10 03:58:15;;;;;;;15.90;14.40;;;13.70;99.90;;;;;;5041549;28;20025;-72
2021/07/10 04:00:40;;;;;;;15.32;13.95;;;13.60;99.90;;;;;;5033260;28;20132;-72
2021/07/10 04:03:07;;;;;;;14.68;12.98;;;13.50;99.90;;;;;;5033450;28;20519;-72
2021/07/10 04:05:33;;;;;;;26.65;14.02;;;13.60;99.90;;;;;;5051211;28;20041;-72
2021/07/10 04:07:58;;;;;;;26.92;14.55;;;13.60;99.90;;;;;;5034747;28;20025;-72
2021/07/10 04:10:24;;;;;;;59.03;15.88;;;13.60;99.90;;;;;;5048556;28;20047;-72
2021/07/10 04:12:50;;;;;;;14.73;12.98;;;13.70;99.90;;;;;;5041149;28;20025;-72
2021/07/10 04:15:18;;;;;;;43.72;13.93;;;13.60;99.90;;;;;;5006292;28;20029;-70
2021/07/10 04:17:44;;;;;;;15.55;13.95;;;13.20;99.90;;;;;;5025577;28;20032;-72
2021/07/10 04:20:11;;;;;;;18.08;14.43;;;13.10;99.90;;;;;;5050024;28;20518;-72
2021/07/10 04:22:38;;;;;;;18.48;15.57;;;13.20;99.90;;;;;;5032977;28;20498;-73
2021/07/10 04:25:05;;;;;;;17.80;15.95;;;13.40;99.90;;;;;;5051986;28;20021;-73
2021/07/10 04:27:32;;;;;;;16.45;14.85;;;13.50;99.90;;;;;;5054751;28;20027;-73
2021/07/10 04:29:59;;;;;;;30.27;15.25;;;13.60;99.90;;;;;;5054535;28;20051;-73
2021/07/10 04:32:25;;;;;;;13.90;12.55;;;13.70;99.90;;;;;;5055153;28;20087;-73
2021/07/10 04:34:51;;;;;;;15.07;13.63;;;13.60;99.90;;;;;;5042133;28;20369;-70
2021/07/10 04:37:17;;;;;;;21.08;13.82;;;13.70;99.90;;;;;;5015499;28;20048;-72
2021/07/10 04:39:42;;;;;;;25.73;13.98;;;13.70;99.90;;;;;;4997309;28;20369;-73
2021/07/10 04:42:08;;;;;;;15.35;13.05;;;13.80;99.90;;;;;;5014665;28;20499;-73
2021/07/10 04:44:34;;;;;;;28.67;12.68;;;13.90;99.90;;;;;;5015302;28;20030;-73
2021/07/10 04:47:01;;;;;;;13.80;12.27;;;13.90;99.90;;;;;;5015267;28;20503;-72
2021/07/10 04:49:26;;;;;;;19.92;12.68;;;13.90;99.90;;;;;;5015031;28;20541;-72
2021/07/10 04:51:52;;;;;;;25.85;12.27;;;13.80;99.90;;;;;;5014559;28;20026;-72
2021/07/10 04:54:18;;;;;;;28.00;13.20;;;13.70;99.90;;;;;;5015256;28;20054;-72
2021/07/10 04:56:43;;;;;;;21.35;12.48;;;13.40;99.90;;;;;;5014541;28;20046;-72
2021/07/10 04:59:09;;;;;;;13.40;12.07;;;13.30;99.90;;;;;;4997588;28;20026;-72
2021/07/10 05:01:35;;;;;;;14.60;12.57;;;13.20;99.90;;;;;;5032993;28;20035;-72
2021/07/10 05:04:00;;;;;;;14.23;12.75;;;13.30;99.90;;;;;;5026521;28;20018;-73
2021/07/10 05:06:26;;;;;;;13.43;12.23;;;13.40;99.90;;;;;;5023306;28;20021;-73
2021/07/10 05:08:52;;;;;;;19.15;13.95;;;13.40;99.90;;;;;;5014227;28;20032;-70
2021/07/10 05:11:18;;;;;;;23.88;13.80;;;13.60;99.90;;;;;;5009589;28;20034;-72
2021/07/10 05:13:44;;;;;;;14.68;13.02;;;13.80;99.90;;;;;;5024579;28;20030;-73
2021/07/10 05:16:09;;;;;;;13.25;11.95;;;13.90;99.90;;;;;;5023420;28;20032;-74
2021/07/10 05:18:35;;;;;;;21.98;13.63;;;14.10;99.90;;;;;;5003253;28;20029;-75
2021/07/10 05:21:00;;;;;;;59.95;15.43;;;14.20;99.90;;;;;;5022651;28;20026;-74
2021/07/10 05:23:26;;;;;;;30.08;15.20;;;14.40;99.90;;;;;;5024183;28;20094;-76
2021/07/10 05:25:52;;;;;;;13.50;12.10;;;14.60;99.90;;;;;;5003474;28;20036;-76
2021/07/10 05:28:17;;;;;;;21.50;11.88;;;14.50;99.90;;;;;;5008481;28;20029;-77
2021/07/10 05:30:43;;;;;;;16.50;12.48;;;14.50;99.90;;;;;;5020994;28;20018;-78
2021/07/10 05:33:09;;;;;;;14.43;11.60;;;14.60;99.90;;;;;;5004996;28;20109;-77
2021/07/10 05:35:35;;;;;;;12.57;10.90;;;14.70;99.90;;;;;;5022746;28;20427;-77
2021/07/10 05:38:01;;;;;;;15.80;9.23;;;14.50;99.90;;;;;;5021332;28;20480;-76
2021/07/10 05:40:27;;;;;;;13.65;9.88;;;14.50;99.90;;;;;;5022598;28;20021;-75
2021/07/10 05:42:53;;;;;;;10.27;9.20;;;14.40;99.90;;;;;;5020712;28;20068;-76
2021/07/10 05:45:19;;;;;;;10.27;9.38;;;14.40;99.90;;;;;;5019833;28;20017;-76
2021/07/10 05:47:46;;;;;;;10.70;9.65;;;14.30;99.90;;;;;;5022695;28;20065;-76
2021/07/10 05:50:11;;;;;;;10.50;9.43;;;14.20;99.90;;;;;;5020885;28;20018;-75
2021/07/10 05:52:38;;;;;;;10.20;9.30;;;14.40;99.90;;;;;;5021125;28;20024;-75
2021/07/10 05:55:05;;;;;;;10.25;9.25;;;14.50;99.90;;;;;;5023040;28;20018;-74
2021/07/10 05:57:31;;;;;;;10.85;9.85;;;14.60;99.90;;;;;;5020926;28;20033;-75
2021/07/10 05:59:57;;;;;;;10.98;10.07;;;14.70;99.90;;;;;;5020518;28;20499;-75
2021/07/10 06:02:23;;;;;;;13.40;11.10;;;15.10;99.90;;;;;;5004466;28;20029;-74
2021/07/10 06:04:49;;;;;;;11.60;9.85;;;15.50;99.90;;;;;;5023821;28;20036;-75
2021/07/10 06:07:15;;;;;;;10.98;10.02;;;15.50;99.90;;;;;;5021804;28;20022;-75
2021/07/10 06:09:40;;;;;;;10.75;9.73;;;15.50;99.90;;;;;;5020148;28;20034;-76
2021/07/10 06:12:06;;;;;;;9.95;8.73;;;15.50;99.90;;;;;;5003841;28;20025;-75
2021/07/10 06:14:33;;;;;;;11.35;9.90;;;15.60;99.90;;;;;;5019671;28;20793;-76
2021/07/10 06:16:59;;;;;;;10.40;9.50;;;15.70;99.90;;;;;;5021972;28;20051;-76
2021/07/10 06:19:25;;;;;;;9.35;8.38;;;15.60;99.90;;;;;;5002115;28;20032;-74
2021/07/10 06:21:51;;;;;;;10.80;8.65;;;15.70;99.90;;;;;;5020558;28;20029;-75
2021/07/10 06:24:17;;;;;;;9.93;8.93;;;15.70;99.90;;;;;;5021922;28;20057;-74
2021/07/10 06:26:42;;;;;;;10.07;8.93;;;16.00;99.90;;;;;;5019565;28;20445;-73
2021/07/10 06:29:08;;;;;;;10.15;9.25;;;16.00;99.90;;;;;;5023093;28;20699;-73
2021/07/10 06:31:34;;;;;;;9.73;8.82;;;16.00;99.90;;;;;;5032804;28;20384;-78
2021/07/10 06:34:00;;;;;;;9.00;8.20;;;16.00;99.90;;;;;;5030667;28;20034;-77
2021/07/10 06:36:27;;;;;;;8.90;8.05;;;16.10;99.90;;;;;;5014408;28;20108;-76
2021/07/10 06:38:53;;;;;;;11.02;10.02;;;16.10;99.90;;;;;;5015923;28;20032;-75
2021/07/10 06:41:19;;;;;;;12.07;10.77;;;16.30;99.90;;;;;;5014085;28;20515;-77
2021/07/10 06:43:44;;;;;;;10.30;9.35;;;16.40;99.90;;;;;;5017195;28;20030;-77
2021/07/10 06:46:10;;;;;;;14.20;11.32;;;16.50;99.90;;;;;;5014705;28;20021;-75
2021/07/10 06:48:36;;;;;;;12.75;11.63;;;16.60;99.90;;;;;;5012608;28;20022;-74
2021/07/10 06:51:03;;;;;;;11.15;10.07;;;16.50;99.90;;;;;;5012876;28;20022;-75
2021/07/10 06:53:29;;;;;;;14.35;10.70;;;16.50;99.90;;;;;;5012881;28;20033;-75
2021/07/10 06:55:55;;;;;;;12.82;11.63;;;16.70;99.90;;;;;;5012399;28;20036;-70
2021/07/10 06:58:20;;;;;;;11.13;10.13;;;16.70;99.90;;;;;;5024365;28;20379;-70
2021/07/10 07:00:46;;;;;;;9.80;8.90;;;16.60;99.90;;;;;;5031767;28;20017;-71
2021/07/10 07:03:12;;;;;;;10.30;9.40;;;16.60;99.90;;;;;;5031971;28;20071;-70
2021/07/10 07:05:38;;;;;;;9.30;8.40;;;16.60;99.90;;;;;;5043349;28;20021;-71
2021/07/10 07:08:04;;;;;;;11.75;8.30;;;16.70;99.90;;;;;;5052099;28;20025;-72
2021/07/10 07:10:30;;;;;;;8.75;7.85;;;16.80;99.90;;;;;;5000262;28;20191;-70
2021/07/10 07:12:55;;;;;;;8.10;7.30;;;16.90;99.90;;;;;;5011852;28;20034;-70
2021/07/10 07:15:21;;;;;;;8.05;7.25;;;17.00;99.90;;;;;;5012267;28;20022;-71
2021/07/10 07:17:47;;;;;;;9.32;8.43;;;17.20;99.90;;;;;;5012163;28;20636;-72
2021/07/10 07:20:14;;;;;;;8.27;7.53;;;17.40;99.90;;;;;;5011563;28;20420;-72
2021/07/10 07:22:44;;;;;;;7.78;7.07;;;17.60;99.90;;;;;;5011541;28;20026;-70
2021/07/10 07:25:12;;;;;;;7.18;6.47;;;17.70;99.90;;;;;;5014036;28;20030;-72
2021/07/10 07:27:37;;;;;;;8.90;6.28;;;17.80;99.90;;;;;;4996174;28;20105;-71
2021/07/10 07:30:06;;;;;;;7.07;6.47;;;18.00;99.90;;;;;;5011118;28;20101;-71
2021/07/10 07:32:32;;;;;;;6.78;6.18;;;18.00;99.90;;;;;;5011706;28;20121;-71
2021/07/10 07:34:57;;;;;;;6.93;6.28;;;18.10;99.90;;;;;;5011866;28;20113;-71
2021/07/10 07:37:23;;;;;;;7.00;6.03;;;18.00;99.90;;;;;;5011826;28;20030;-71
2021/07/10 07:39:49;;;;;;;7.22;6.38;;;17.90;99.90;;;;;;5011161;28;20113;-71
2021/07/10 07:42:16;;;;;;;7.05;6.20;;;18.10;99.90;;;;;;5011546;28;20041;-71
2021/07/10 07:44:42;;;;;;;11.18;6.30;;;18.50;99.90;;;;;;5011680;28;20040;-70
2021/07/10 07:47:10;;;;;;;7.60;5.65;;;18.90;99.90;;;;;;4997842;28;20025;-71
2021/07/10 07:49:35;;;;;;;6.15;5.55;;;19.10;99.90;;;;;;5030885;28;20083;-72
2021/07/10 07:52:01;;;;;;;6.05;5.45;;;19.00;99.90;;;;;;5013373;28;20464;-71
2021/07/10 07:54:27;;;;;;;7.05;5.53;;;19.20;99.90;;;;;;5030884;28;20037;-71
2021/07/10 07:56:53;;;;;;;8.40;5.50;;;19.50;99.90;;;;;;5031001;28;20033;-73
2021/07/10 07:59:19;;;;;;;5.63;5.03;;;19.50;99.90;;;;;;5013421;28;20112;-71
2021/07/10 08:01:45;;;;;;;6.63;6.03;;;19.50;99.90;;;;;;5030302;28;20022;-70
2021/07/10 08:04:11;;;;;;;7.40;5.13;;;19.70;99.90;;;;;;5025874;28;20026;-71
2021/07/10 08:06:37;;;;;;;5.68;5.20;;;19.60;99.90;;;;;;5016490;28;20028;-71
2021/07/10 08:09:03;;;;;;;6.55;5.78;;;19.70;99.90;;;;;;5026414;28;20083;-71
2021/07/10 08:11:29;;;;;;;7.90;5.55;;;19.90;99.90;;;;;;5016360;28;20029;-71
2021/07/10 08:13:56;;;;;;;5.75;5.10;;;20.20;99.90;;;;;;5011767;28;20033;-70
2021/07/10 08:16:22;;;;;;;6.93;5.35;;;20.20;99.90;;;;;;5018008;28;20026;-72
2021/07/10 08:18:48;;;;;;;6.20;5.13;;;20.10;99.90;;;;;;5021512;28;20404;-71
2021/07/10 08:21:14;;;;;;;5.53;5.03;;;20.20;99.90;;;;;;5010398;28;20037;-72
2021/07/10 08:23:40;;;;;;;8.93;4.75;;;20.40;99.90;;;;;;5011041;28;20030;-69
2021/07/10 08:26:06;;;;;;;5.90;5.10;;;20.60;99.90;;;;;;5010835;28;20026;-71
2021/07/10 08:28:32;;;;;;;4.60;4.20;;;20.60;99.90;;;;;;5010616;28;20100;-71
2021/07/10 08:30:58;;;;;;;4.60;4.20;;;20.70;99.90;;;;;;5010484;28;20022;-71
2021/07/10 08:33:24;;;;;;;4.30;3.88;;;20.80;99.90;;;;;;5011953;28;20022;-71
2021/07/10 08:35:50;;;;;;;4.75;4.30;;;20.90;99.90;;;;;;5011246;28;20602;-70
2021/07/10 08:38:16;;;;;;;5.43;3.90;;;21.20;99.90;;;;;;5011472;28;20036;-70
2021/07/10 08:40:42;;;;;;;5.50;4.05;;;21.50;99.90;;;;;;5011385;28;20357;-70
2021/07/10 08:43:08;;;;;;;4.15;3.75;;;21.60;99.90;;;;;;4993709;28;20033;-70
2021/07/10 08:45:35;;;;;;;4.28;3.88;;;22.00;99.90;;;;;;5011290;28;20026;-69
2021/07/10 08:48:05;;;;;;;3.63;3.40;;;22.10;99.90;;;;;;5011269;28;20080;-69
2021/07/10 08:50:32;;;;;;;3.88;3.58;;;22.20;99.90;;;;;;5010507;28;20083;-70
2021/07/10 08:52:58;;;;;;;5.63;3.88;;;22.40;99.90;;;;;;5011419;28;20032;-68
2021/07/10 08:55:24;;;;;;;6.00;3.50;;;23.20;99.90;;;;;;5011264;28;20484;-69
2021/07/10 08:57:53;;;;;;;3.47;3.17;;;23.50;99.90;;;;;;5010626;28;20053;-67
2021/07/10 09:00:32;;;;;;;3.20;2.90;;;23.50;99.90;;;;;;5010635;28;20037;-70
2021/07/10 09:02:59;;;;;;;2.72;2.53;;;23.60;99.90;;;;;;5010860;28;20845;-69
2021/07/10 09:05:25;;;;;;;2.70;2.33;;;24.30;99.90;;;;;;5028634;28;20029;-69
2021/07/10 09:08:22;;;;;;;2.50;2.30;;;24.30;99.90;;;;;;5050672;28;20096;-68
2021/07/10 09:11:14;;;;;;;2.58;1.88;;;24.30;99.90;;;;;;5050325;28;20029;-69
2021/07/10 09:13:42;;;;;;;4.80;2.00;;;24.90;99.90;;;;;;5053892;28;20394;-69
2021/07/10 09:16:17;;;;;;;4.60;1.80;;;24.50;99.90;;;;;;5053614;28;20033;-69
2021/07/10 09:18:47;;;;;;;1.63;1.45;;;24.60;99.90;;;;;;5054306;28;20036;-67
2021/07/10 09:21:39;;;;;;;1.30;1.20;;;25.30;99.90;;;;;;5053417;28;20071;-68
2021/07/10 09:24:07;;;;;;;1.60;1.50;;;25.60;99.90;;;;;;5047172;28;20037;-68
2021/07/10 09:26:38;;;;;;;1.80;1.70;;;25.70;99.90;;;;;;5053569;28;20059;-69
2021/07/10 09:29:06;;;;;;;1.77;1.67;;;26.00;99.90;;;;;;5053847;28;20032;-68
2021/07/10 09:31:54;;;;;;;1.58;1.48;;;26.00;99.10;;;;;;5052924;28;20028;-68
2021/07/10 09:34:27;;;;;;;2.10;1.67;;;26.00;98.80;;;;;;5050159;28;20048;-68
2021/07/10 09:37:01;;;;;;;1.88;1.60;;;26.70;99.40;;;;;;5033071;28;20059;-68
2021/07/10 09:39:30;;;;;;;18.80;3.47;;;27.40;98.30;;;;;;5033568;28;20033;-68
2021/07/10 09:41:57;;;;;;;4.70;1.60;;;27.80;98.10;;;;;;5032554;28;20506;-68
2021/07/10 09:44:24;;;;;;;2.55;1.85;;;27.80;95.50;;;;;;5015299;28;20033;-71
2021/07/10 09:46:50;;;;;;;1.55;1.45;;;27.40;96.20;;;;;;5013900;28;20026;-69
2021/07/10 09:49:18;;;;;;;2.42;1.50;;;27.10;96.70;;;;;;5013889;28;20018;-68
2021/07/10 09:51:45;;;;;;;3.15;1.73;;;27.80;95.80;;;;;;5013227;28;20385;-68
2021/07/10 09:54:11;;;;;;;4.45;1.70;;;27.60;95.70;;;;;;5014021;28;20037;-68
2021/07/10 09:57:00;;;;;;;2.38;1.70;;;28.50;96.20;;;;;;5036488;22;20096;-67
2021/07/10 09:59:26;;;;;;;1.70;1.60;;;28.70;97.10;;;;;;5006950;28;20041;-71
2021/07/10 10:01:52;;;;;;;1.67;1.55;;;29.20;95.00;;;;;;5033581;28;20400;-70
2021/07/10 10:04:27;;;;;;;1.58;1.48;;;28.80;94.90;;;;;;5033967;28;20036;-70
2021/07/10 10:06:54;;;;;;;2.35;1.40;;;29.00;93.80;;;;;;5052125;28;20573;-71
2021/07/10 10:09:29;;;;;;;8.25;1.90;;;28.80;93.80;;;;;;5052220;28;20174;-71
2021/07/10 10:12:01;;;;;;;3.65;1.77;;;28.20;93.50;;;;;;5052469;28;20017;-71
2021/07/10 10:14:29;;;;;;;3.15;2.25;;;27.70;94.90;;;;;;5052979;28;20025;-70
2021/07/10 10:16:56;;;;;;;2.08;1.95;;;27.10;96.20;;;;;;5049187;28;20391;-69
2021/07/10 10:19:27;;;;;;;2.15;1.95;;;27.10;95.20;;;;;;5033513;28;20466;-69
2021/07/10 10:21:59;;;;;;;2.80;2.17;;;26.80;95.30;;;;;;5032240;28;20029;-70
2021/07/10 10:24:26;;;;;;;1.73;1.63;;;26.40;95.60;;;;;;5032701;28;20036;-69
2021/07/10 10:26:52;;;;;;;3.22;2.20;;;26.50;95.90;;;;;;5032336;28;20025;-71
2021/07/10 10:29:21;;;;;;;1.80;1.70;;;26.90;97.30;;;;;;5033583;28;20030;-72
2021/07/10 10:31:48;;;;;;;2.00;1.90;;;27.70;96.10;;;;;;5033214;28;20013;-72
2021/07/10 10:34:15;;;;;;;2.05;1.90;;;27.70;95.70;;;;;;5034489;28;20479;-71
2021/07/10 10:36:44;;;;;;;3.20;1.98;;;27.60;94.80;;;;;;5034339;28;20022;-71
2021/07/10 10:39:35;;;;;;;2.33;2.13;;;27.50;94.20;;;;;;5034551;28;20029;-71
2021/07/10 10:42:07;;;;;;;2.30;2.10;;;27.70;96.10;;;;;;5034286;28;20032;-72
2021/07/10 10:44:42;;;;;;;2.25;1.80;;;28.10;93.70;;;;;;5028436;28;20030;-73
2021/07/10 10:47:09;;;;;;;2.20;2.10;;;27.80;95.40;;;;;;5019709;28;20042;-72
2021/07/10 10:49:42;;;;;;;3.83;2.00;;;27.50;94.40;;;;;;5033880;28;20028;-73
2021/07/10 10:52:19;;;;;;;4.25;2.35;;;27.50;96.20;;;;;;5015209;28;20395;-74
2021/07/10 10:54:53;;;;;;;2.03;1.75;;;28.10;96.10;;;;;;5033171;28;20159;-73
2021/07/10 10:57:43;;;;;;;2.30;2.10;;;28.30;94.70;;;;;;5014704;28;20116;-72
2021/07/10 11:00:16;;;;;;;3.00;2.70;;;28.00;94.70;;;;;;5040404;28;20055;-73
2021/07/10 11:02:59;;;;;;;3.28;2.58;;;28.10;94.70;;;;;;5036716;28;20391;-73
2021/07/10 11:05:31;;;;;;;3.75;2.60;;;28.20;94.50;;;;;;5040904;28;20120;-73
2021/07/10 11:08:21;;;;;;;3.55;2.85;;;28.10;94.40;;;;;;5045773;28;20022;-72
2021/07/10 11:10:58;;;;;;;4.82;2.78;;;27.30;95.50;;;;;;5026155;28;20017;-69
2021/07/10 11:13:33;;;;;;;2.78;2.50;;;27.00;96.20;;;;;;5053658;28;20021;-71
2021/07/10 11:16:08;;;;;;;3.97;2.20;;;27.70;96.30;;;;;;5055726;28;20471;-70
2021/07/10 11:18:57;;;;;;;2.30;2.10;;;28.00;95.30;;;;;;5048522;28;20032;-70
2021/07/10 11:21:35;;;;;;;2.25;2.03;;;28.10;94.00;;;;;;5047690;28;20017;-70
2021/07/10 11:24:25;;;;;;;2.65;2.55;;;27.90;94.60;;;;;;5049016;28;20120;-71
2021/07/10 11:26:56;;;;;;;2.63;2.42;;;28.20;94.50;;;;;;5041529;28;20360;-70
2021/07/10 11:29:23;;;;;;;2.47;2.28;;;28.20;94.70;;;;;;5048654;28;20025;-70
2021/07/10 11:31:53;;;;;;;2.75;2.38;;;28.40;93.90;;;;;;5040753;28;20013;-71
2021/07/10 11:34:20;;;;;;;2.80;2.60;;;28.60;94.00;;;;;;5041666;28;20022;-68
2021/07/10 11:36:55;;;;;;;2.47;2.30;;;28.80;93.40;;;;;;5051651;28;20025;-68
2021/07/10 11:39:24;;;;;;;2.92;2.45;;;28.70;92.80;;;;;;5045076;28;20145;-69
2021/07/10 11:41:55;;;;;;;2.78;2.58;;;27.20;94.40;;;;;;5044018;28;20028;-70
2021/07/10 11:44:24;;;;;;;3.95;2.60;;;26.50;97.40;;;;;;5049682;28;20056;-70
2021/07/10 11:46:56;;;;;;;3.13;2.90;;;26.30;96.80;;;;;;5031028;28;20030;-70
2021/07/10 11:49:37;;;;;;;2.88;2.67;;;26.30;99.20;;;;;;5031266;28;20026;-69
2021/07/10 11:52:03;;;;;;;3.10;2.80;;;26.70;97.10;;;;;;5031021;28;20048;-70
2021/07/10 11:54:29;;;;;;;3.85;2.90;;;26.50;97.20;;;;;;5030947;28;20033;-69
2021/07/10 11:56:55;;;;;;;3.10;2.30;;;27.20;98.50;;;;;;5031198;28;20033;-70
2021/07/10 11:59:22;;;;;;;2.47;2.28;;;28.00;96.20;;;;;;5031823;28;20108;-70
2021/07/10 12:01:47;;;;;;;2.75;2.25;;;28.20;93.90;;;;;;5031152;28;20049;-71
2021/07/10 12:04:13;;;;;;;4.13;1.92;;;27.90;95.40;;;;;;5031631;28;20064;-69
2021/07/10 12:06:39;;;;;;;3.72;2.92;;;27.70;95.50;;;;;;5051037;28;20032;-68
2021/07/10 12:09:04;;;;;;;3.13;2.50;;;27.10;95.60;;;;;;5050979;28;20079;-69
2021/07/10 12:11:30;;;;;;;2.88;2.40;;;26.80;97.60;;;;;;5050663;28;20433;-70
2021/07/10 12:14:09;;;;;;;2.40;2.20;;;26.80;98.60;;;;;;5051387;28;20036;-69
2021/07/10 12:16:36;;;;;;;2.55;2.20;;;26.40;96.10;;;;;;5051374;28;20036;-69
2021/07/10 12:19:03;;;;;;;2.00;1.90;;;26.90;96.10;;;;;;5050880;28;20044;-69
2021/07/10 12:21:29;;;;;;;1.90;1.80;;;27.60;97.10;;;;;;5050412;28;20053;-69
2021/07/10 12:23:57;;;;;;;2.83;1.70;;;28.30;95.40;;;;;;5050597;28;20032;-69
2021/07/10 12:26:25;;;;;;;2.75;1.98;;;28.70;94.70;;;;;;5051099;28;20052;-71
2021/07/10 12:28:55;;;;;;;6.28;2.20;;;29.30;94.60;;;;;;5048320;28;20017;-71
2021/07/10 12:31:35;;;;;;;2.05;1.85;;;29.30;92.20;;;;;;5030943;28;20041;-69
2021/07/10 12:34:12;;;;;;;1.92;1.75;;;28.90;93.60;;;;;;5031583;28;20440;-68
2021/07/10 12:36:43;;;;;;;2.70;2.50;;;28.50;92.70;;;;;;5031710;28;20040;-68
2021/07/10 12:39:11;;;;;;;2.17;1.90;;;27.50;94.10;;;;;;5030414;28;20025;-69